createdAt,value
2023-02-20T00:01:56.327Z,5.93
2023-02-20T00:07:16.907Z,5.95
2023-02-20T00:12:37.615Z,5.98
2023-02-20T00:17:58.266Z,6.06
2023-02-20T00:23:19.703Z,6.15
2023-02-20T00:28:42.177Z,6.15
2023-02-20T00:34:03.573Z,6.18
2023-02-20T00:47:49.771Z,6.08
2023-02-20T00:53:10.301Z,6.09
2023-02-20T00:58:31.354Z,6.14
2023-02-20T01:03:52.209Z,6.15
2023-02-20T01:09:13.477Z,6.15
2023-02-20T01:14:35.772Z,6.18
2023-02-20T01:19:56.341Z,6.17
2023-02-20T01:25:17.354Z,6.16
2023-02-20T01:30:38.429Z,6.23
2023-02-20T01:35:59.220Z,6.25
2023-02-20T01:41:20.162Z,6.30
2023-02-20T01:46:44.345Z,6.28
2023-02-20T01:52:15.113Z,6.29
2023-02-20T01:57:38.629Z,6.34
2023-02-20T02:03:05.045Z,6.36
2023-02-20T02:08:28.478Z,6.43
2023-02-20T02:13:50.070Z,6.46
2023-02-20T02:19:25.939Z,6.50
2023-02-20T02:25:24.545Z,6.51
2023-02-20T02:31:09.887Z,6.69
2023-02-20T02:36:47.505Z,6.86
2023-02-20T02:42:20.245Z,6.72
2023-02-20T02:47:55.042Z,6.68
2023-02-20T02:53:17.851Z,6.66
2023-02-20T02:58:38.386Z,6.66
2023-02-20T03:04:01.585Z,6.62
2023-02-20T03:09:28.946Z,6.64
2023-02-20T03:15:30.966Z,6.59
2023-02-20T03:20:55.557Z,6.62
2023-02-20T03:26:22.385Z,6.59
2023-02-20T03:32:12.102Z,6.57
2023-02-20T03:37:54.482Z,6.55
2023-02-20T03:43:28.521Z,6.56
2023-02-20T03:48:58.662Z,6.55
2023-02-20T03:54:20.638Z,6.58
2023-02-20T03:59:47.708Z,6.59
2023-02-20T04:05:14.291Z,6.60
2023-02-20T04:10:47.784Z,6.59
2023-02-20T04:16:09.300Z,6.60
2023-02-20T04:21:41.566Z,6.54
2023-02-20T04:27:04.280Z,6.61
2023-02-20T04:32:28.523Z,6.60
2023-02-20T04:37:50.119Z,6.59
2023-02-20T04:43:11.235Z,6.57
2023-02-20T04:48:31.442Z,6.54
2023-02-20T04:53:53.201Z,6.51
2023-02-20T05:07:11.209Z,6.48
2023-02-20T05:12:31.780Z,6.46
2023-02-20T05:17:52.684Z,6.46
2023-02-20T05:23:13.499Z,6.41
2023-02-20T05:28:34.149Z,6.44
2023-02-20T05:33:54.929Z,6.44
2023-02-20T05:39:16.161Z,6.47
2023-02-20T05:44:37.703Z,6.54
2023-02-20T05:49:58.035Z,6.54
2023-02-20T05:55:18.832Z,6.51
2023-02-20T06:00:39.698Z,6.51
2023-02-20T06:06:00.223Z,6.52
2023-02-20T06:11:20.458Z,6.51
2023-02-20T06:16:41.144Z,6.52
2023-02-20T06:22:01.971Z,6.52
2023-02-20T06:27:22.389Z,6.51
2023-02-20T06:32:42.967Z,6.59
2023-02-20T06:38:03.611Z,6.59
2023-02-20T06:43:23.826Z,6.65
2023-02-20T06:48:49.884Z,6.65
2023-02-20T06:54:12.871Z,6.70
2023-02-20T06:59:39.752Z,6.80
2023-02-20T07:05:00.196Z,6.92
2023-02-20T07:10:20.719Z,7.02
2023-02-20T07:15:40.971Z,7.05
2023-02-20T07:21:01.916Z,7.04
2023-02-20T07:26:28.735Z,7.03
2023-02-20T07:31:49.377Z,7.01
2023-02-20T07:37:09.710Z,7.01
2023-02-20T07:42:29.993Z,7.12
2023-02-20T07:48:00.951Z,7.11
2023-02-20T07:53:21.890Z,7.11
2023-02-20T07:58:42.477Z,7.18
2023-02-20T08:04:03.830Z,7.27
2023-02-20T08:09:24.651Z,7.42
2023-02-20T08:14:45.413Z,7.47
2023-02-20T08:20:19.349Z,7.53
2023-02-20T08:25:41.830Z,7.58
2023-02-20T08:31:03.544Z,7.65
2023-02-20T08:36:26.181Z,7.60
2023-02-20T08:41:47.816Z,7.65
2023-02-20T08:47:12.378Z,7.64
2023-02-20T08:52:33.695Z,7.77
2023-02-20T08:57:58.192Z,7.79
2023-02-20T09:03:19.879Z,7.79
2023-02-20T09:08:40.564Z,7.90
2023-02-20T09:14:02.229Z,7.96
2023-02-20T09:19:26.341Z,8.05
2023-02-20T09:24:50.259Z,8.03
2023-02-20T09:30:26.625Z,8.09
2023-02-20T09:35:49.358Z,8.20
2023-02-20T09:41:25.998Z,8.35
2023-02-20T09:46:50.636Z,8.59
2023-02-20T09:52:15.158Z,8.60
2023-02-20T09:57:37.840Z,8.56
2023-02-20T10:03:24.762Z,8.49
2023-02-20T10:08:48.514Z,8.39
2023-02-20T10:14:19.245Z,8.27
2023-02-20T10:20:00.384Z,8.16
2023-02-20T10:25:30.654Z,8.18
2023-02-20T10:31:01.390Z,8.37
2023-02-20T10:36:42.838Z,8.55
2023-02-20T10:42:27.516Z,8.53
2023-02-20T10:48:02.446Z,8.52
2023-02-20T10:53:47.371Z,8.64
2023-02-20T10:59:11.071Z,8.45
2023-02-20T11:04:39.563Z,8.33
2023-02-20T11:10:00.005Z,8.41
2023-02-20T11:15:32.626Z,8.46
2023-02-20T11:20:55.600Z,8.46
2023-02-20T11:26:27.429Z,8.44
2023-02-20T11:31:48.184Z,8.31
2023-02-20T11:37:14.466Z,8.30
2023-02-20T11:42:36.338Z,8.26
2023-02-20T11:48:20.486Z,8.08
2023-02-20T11:53:41.401Z,8.06
2023-02-20T11:59:27.933Z,7.92
2023-02-20T12:05:12.306Z,8.00
2023-02-20T12:10:46.751Z,7.92
2023-02-20T12:16:31.049Z,7.84
2023-02-20T12:22:19.925Z,7.86
2023-02-20T12:27:51.978Z,7.87
2023-02-20T12:33:38.624Z,7.90
2023-02-20T12:39:26.065Z,7.93
2023-02-20T12:45:03.063Z,7.94
2023-02-20T12:50:48.446Z,7.87
2023-02-20T12:56:30.452Z,7.98
2023-02-20T13:01:53.444Z,7.97
2023-02-20T13:07:21.320Z,8.01
2023-02-20T13:12:42.635Z,7.86
2023-02-20T13:18:32.719Z,7.78
2023-02-20T13:24:26.307Z,7.83
2023-02-20T13:29:58.855Z,7.90
2023-02-20T13:35:56.033Z,7.89
2023-02-20T13:41:16.474Z,7.92
2023-02-20T13:47:26.959Z,7.88
2023-02-20T13:52:49.352Z,7.97
2023-02-20T13:58:15.700Z,7.98
2023-02-20T14:03:36.456Z,7.95
2023-02-20T14:09:27.550Z,7.84
2023-02-20T14:14:48.610Z,7.74
2023-02-20T14:20:19.969Z,7.59
2023-02-20T14:25:49.227Z,7.60
2023-02-20T14:31:30.946Z,7.54
2023-02-20T14:37:15.214Z,7.45
2023-02-20T14:42:39.445Z,7.45
2023-02-20T14:48:01.287Z,7.45
2023-02-20T14:53:21.787Z,7.46
2023-02-20T14:58:43.576Z,7.49
2023-02-20T15:04:26.330Z,7.44
2023-02-20T15:09:49.833Z,7.48
2023-02-20T15:15:13.736Z,7.42
2023-02-20T15:20:34.904Z,7.39
2023-02-20T15:25:55.847Z,7.50
2023-02-20T15:31:23.395Z,7.38
2023-02-20T15:36:44.571Z,7.32
2023-02-20T15:42:10.742Z,7.32
2023-02-20T15:47:31.341Z,7.31
2023-02-20T15:52:51.955Z,7.25
2023-02-20T15:58:44.692Z,7.16
2023-02-20T16:04:16.057Z,7.14
2023-02-20T16:09:36.696Z,7.13
2023-02-20T16:14:57.854Z,7.06
2023-02-20T16:20:21.847Z,7.01
2023-02-20T16:25:42.401Z,6.94
2023-02-20T16:31:02.901Z,6.94
2023-02-20T16:36:25.279Z,6.91
2023-02-20T16:41:46.020Z,6.78
2023-02-20T16:47:10.200Z,6.70
2023-02-20T16:52:39.339Z,6.65
2023-02-20T16:58:00.766Z,6.63
2023-02-20T17:03:23.701Z,6.57
2023-02-20T17:08:43.942Z,6.55
2023-02-20T17:14:04.541Z,6.49
2023-02-20T17:19:25.269Z,6.51
2023-02-20T17:24:46.003Z,6.48
2023-02-20T17:30:08.105Z,6.51
2023-02-20T17:35:29.018Z,6.52
2023-02-20T17:40:49.332Z,6.60
2023-02-20T17:46:10.190Z,6.65
2023-02-20T17:51:30.887Z,6.68
2023-02-20T17:56:52.401Z,6.68
2023-02-20T18:02:14.817Z,6.62
2023-02-20T18:07:35.494Z,6.60
2023-02-20T18:13:05.502Z,6.63
2023-02-20T18:18:26.396Z,6.65
2023-02-20T18:23:47.295Z,6.66
2023-02-20T18:29:08.205Z,6.67
2023-02-20T18:34:31.267Z,6.62
2023-02-20T18:39:52.117Z,6.58
2023-02-20T18:45:13.047Z,6.62
2023-02-20T18:50:34.138Z,6.65
2023-02-20T18:55:54.674Z,6.64
2023-02-20T19:01:22.585Z,6.63
2023-02-20T19:06:47.226Z,6.60
2023-02-20T19:12:08.113Z,6.61
2023-02-20T19:17:28.579Z,6.59
2023-02-20T19:22:49.425Z,6.55
2023-02-20T19:28:11.468Z,6.52
2023-02-20T19:33:32.379Z,6.52
2023-02-20T19:38:53.161Z,6.47
2023-02-20T19:44:17.876Z,6.41
2023-02-20T19:49:45.968Z,6.42
2023-02-20T19:55:07.186Z,6.48
2023-02-20T20:00:30.767Z,6.47
2023-02-20T20:05:51.565Z,6.47
2023-02-20T20:11:12.411Z,6.44
2023-02-20T20:16:35.211Z,6.37
2023-02-20T20:21:55.965Z,6.29
2023-02-20T20:27:20.615Z,6.23
2023-02-20T20:32:41.341Z,6.29
2023-02-20T20:38:03.178Z,6.20
2023-02-20T20:43:23.596Z,6.15
2023-02-20T20:48:45.500Z,6.15
2023-02-20T20:54:07.384Z,6.12
2023-02-20T20:59:28.728Z,6.17
2023-02-20T21:04:52.889Z,6.19
2023-02-20T21:10:16.448Z,6.17
2023-02-20T21:15:37.391Z,6.14
2023-02-20T21:20:58.028Z,6.17
2023-02-20T21:26:18.489Z,6.25
2023-02-20T21:31:47.221Z,6.24
2023-02-20T21:37:08.186Z,6.29
2023-02-20T21:42:47.495Z,6.27
2023-02-20T21:48:08.322Z,6.15
2023-02-20T21:53:33.732Z,6.17
2023-02-20T21:59:05.046Z,6.17
2023-02-20T22:04:29.192Z,6.25
2023-02-20T22:10:08.195Z,6.27
2023-02-20T22:15:49.645Z,6.20
2023-02-20T22:21:36.123Z,6.18
2023-02-20T22:27:15.577Z,6.22
2023-02-20T22:32:55.838Z,6.12
2023-02-20T22:38:34.912Z,6.06
2023-02-20T22:44:14.075Z,6.05
2023-02-20T22:49:53.407Z,6.10
2023-02-20T22:55:32.475Z,6.12
2023-02-20T23:01:11.601Z,6.17
2023-02-20T23:06:50.462Z,6.13
2023-02-20T23:12:31.461Z,6.20
2023-02-20T23:18:10.428Z,6.28
2023-02-20T23:23:49.259Z,6.29
2023-02-20T23:29:28.302Z,6.32
2023-02-20T23:35:07.484Z,6.36
2023-02-20T23:40:46.672Z,6.36
2023-02-20T23:46:25.794Z,6.39
2023-02-20T23:52:14.784Z,6.42
2023-02-20T23:57:56.376Z,6.45
